Time;durP1;ratioP1;P1;durP2;ratioP2;P2;SDS_P1;SDS_P2;PMS_P1;PMS_P2;Temp;Humidity;BMP_temperature;BMP_pressure;BME280_temperature;BME280_humidity;BME280_pressure;Samples;Min_cycle;Max_cycle;Signal;HPM_P1;HPM_P2
2022/03/11 00:02:21;;;;;;;15.02;9.07;;;3.70;99.90;;;;;;5032589;28;20183;-84
2022/03/11 00:04:47;;;;;;;18.90;9.55;;;3.60;99.90;;;;;;5033837;28;20013;-84
2022/03/11 00:07:14;;;;;;;16.83;9.43;;;3.70;99.90;;;;;;5033733;28;20025;-84
2022/03/11 00:09:39;;;;;;;16.30;8.80;;;3.80;99.90;;;;;;5033422;28;20112;-84
2022/03/11 00:12:06;;;;;;;15.13;9.30;;;3.50;99.90;;;;;;5033734;28;20103;-84
2022/03/11 00:14:32;;;;;;;17.20;9.18;;;3.60;99.90;;;;;;5024377;28;20018;-84
2022/03/11 00:16:57;;;;;;;16.85;9.45;;;3.70;99.90;;;;;;5016447;28;20064;-84
2022/03/11 00:19:23;;;;;;;16.58;9.75;;;3.60;99.90;;;;;;5032326;28;20057;-84
2022/03/11 00:21:48;;;;;;;16.63;9.75;;;3.60;99.90;;;;;;5033404;28;20029;-85
2022/03/11 00:24:14;;;;;;;14.80;8.88;;;3.50;99.90;;;;;;5036114;28;20386;-84
2022/03/11 00:26:39;;;;;;;16.80;9.07;;;3.50;99.90;;;;;;5035643;28;20022;-84
2022/03/11 00:29:05;;;;;;;15.88;9.02;;;3.60;99.90;;;;;;5035935;28;20029;-85
2022/03/11 00:31:31;;;;;;;22.58;9.20;;;3.50;99.90;;;;;;5036183;28;20076;-85
2022/03/11 00:33:56;;;;;;;18.40;9.57;;;3.50;99.90;;;;;;5036064;28;20025;-85
2022/03/11 00:36:23;;;;;;;17.00;9.98;;;3.60;99.90;;;;;;5037258;28;20029;-84
2022/03/11 00:38:48;;;;;;;16.05;9.45;;;3.60;99.90;;;;;;5035756;28;20056;-84
2022/03/11 00:41:14;;;;;;;13.95;8.82;;;3.40;99.90;;;;;;5037252;28;20049;-84
2022/03/11 00:43:39;;;;;;;16.48;9.50;;;3.50;99.90;;;;;;5036150;28;20428;-84
2022/03/11 00:46:05;;;;;;;17.10;9.40;;;3.70;99.90;;;;;;5036956;28;20044;-84
2022/03/11 00:48:31;;;;;;;17.27;9.00;;;3.60;99.90;;;;;;5036163;28;20064;-84
2022/03/11 00:50:58;;;;;;;18.13;9.55;;;3.70;99.90;;;;;;5035598;28;20087;-85
2022/03/11 00:53:24;;;;;;;17.15;10.00;;;3.70;99.90;;;;;;5035680;28;20373;-85
2022/03/11 00:55:50;;;;;;;16.60;8.88;;;3.60;99.90;;;;;;5036980;28;20018;-84
2022/03/11 00:58:16;;;;;;;18.70;9.90;;;3.60;99.90;;;;;;5035281;28;22217;-84
2022/03/11 01:00:41;;;;;;;17.15;10.02;;;3.70;99.90;;;;;;5036541;28;20029;-84
2022/03/11 01:03:07;;;;;;;16.23;9.77;;;3.40;99.90;;;;;;5035477;28;20018;-84
2022/03/11 01:05:33;;;;;;;16.25;10.52;;;3.60;99.90;;;;;;5035573;28;20392;-84
2022/03/11 01:07:58;;;;;;;17.27;10.15;;;3.70;99.90;;;;;;5035357;28;20060;-84
2022/03/11 01:10:24;;;;;;;16.38;9.45;;;3.80;99.90;;;;;;5036810;28;20052;-84
2022/03/11 01:12:49;;;;;;;17.17;9.25;;;3.80;99.90;;;;;;5035136;28;20389;-84
2022/03/11 01:15:15;;;;;;;17.58;9.95;;;3.60;99.90;;;;;;5036514;28;20089;-84
2022/03/11 01:17:40;;;;;;;21.00;9.80;;;3.70;99.90;;;;;;5021771;28;20076;-84
2022/03/11 01:20:07;;;;;;;17.05;9.38;;;3.60;99.90;;;;;;5016555;28;20026;-84
2022/03/11 01:22:33;;;;;;;16.77;9.70;;;3.70;99.90;;;;;;5016532;28;20030;-84
2022/03/11 01:24:59;;;;;;;19.23;9.48;;;3.70;99.90;;;;;;5015095;28;20048;-84
2022/03/11 01:27:25;;;;;;;17.85;9.75;;;3.40;99.90;;;;;;5016315;28;20627;-84
2022/03/11 01:33:44;;;;;;;18.20;10.45;;;3.30;99.90;;;;;;5016618;28;20152;-84
2022/03/11 01:36:20;;;;;;;17.33;10.73;;;3.10;99.90;;;;;;5015779;28;20022;-84
2022/03/11 01:38:46;;;;;;;18.50;10.63;;;3.10;99.90;;;;;;5016536;28;20057;-84
2022/03/11 01:41:19;;;;;;;22.73;10.10;;;3.30;99.90;;;;;;5027654;28;20072;-84
2022/03/11 01:43:59;;;;;;;19.48;10.88;;;3.20;99.90;;;;;;5016113;28;20026;-84
2022/03/11 01:49:46;;;;;;;18.30;10.18;;;3.10;99.90;;;;;;5015961;28;20331;-84
2022/03/11 01:52:12;;;;;;;21.42;10.82;;;3.10;99.90;;;;;;5015734;28;20113;-84
2022/03/11 01:54:41;;;;;;;18.38;9.95;;;3.00;99.90;;;;;;5015852;28;20053;-84
2022/03/11 01:57:07;;;;;;;20.73;9.88;;;3.00;99.90;;;;;;5015772;28;20095;-84
2022/03/11 01:59:39;;;;;;;15.05;9.23;;;3.00;99.90;;;;;;5014207;28;20034;-84
2022/03/11 02:02:06;;;;;;;19.98;10.98;;;3.20;99.90;;;;;;5029922;28;20556;-84
2022/03/11 02:04:32;;;;;;;16.77;10.02;;;3.20;99.90;;;;;;5035272;28;20060;-84
2022/03/11 02:07:10;;;;;;;17.85;9.85;;;3.10;99.90;;;;;;5034232;28;20057;-84
2022/03/11 02:09:36;;;;;;;17.77;10.50;;;3.10;99.90;;;;;;5035427;28;20052;-84
2022/03/11 02:12:02;;;;;;;16.50;9.57;;;3.10;99.90;;;;;;5035391;28;20496;-83
2022/03/11 02:17:50;;;;;;;15.20;8.75;;;3.20;99.90;;;;;;5021701;28;20064;-84
2022/03/11 02:20:33;;;;;;;16.67;9.48;;;3.20;99.90;;;;;;5034974;28;20037;-83
2022/03/11 02:22:59;;;;;;;16.60;8.68;;;3.20;99.90;;;;;;5034240;28;20034;-84
2022/03/11 02:25:25;;;;;;;17.25;10.52;;;3.30;99.90;;;;;;5033633;28;20061;-84
2022/03/11 02:27:51;;;;;;;18.83;10.25;;;3.30;99.90;;;;;;5034985;28;20079;-84
2022/03/11 02:30:21;;;;;;;17.48;8.93;;;3.20;99.90;;;;;;5033693;28;20022;-84
2022/03/11 02:32:48;;;;;;;19.13;10.10;;;3.30;99.90;;;;;;5033711;28;20670;-84
2022/03/11 02:35:15;;;;;;;16.98;9.68;;;3.30;99.90;;;;;;5033725;28;20480;-84
2022/03/11 02:37:41;;;;;;;17.45;9.68;;;3.30;99.90;;;;;;5033805;28;20025;-84
2022/03/11 02:40:07;;;;;;;19.10;10.43;;;3.30;99.90;;;;;;5033486;28;20035;-83
2022/03/11 02:42:33;;;;;;;17.60;9.73;;;3.10;99.90;;;;;;5034693;28;20117;-84
2022/03/11 02:45:03;;;;;;;16.00;9.60;;;3.20;99.90;;;;;;5034766;28;20017;-84
2022/03/11 02:47:29;;;;;;;16.60;9.52;;;3.30;99.90;;;;;;5034300;28;20029;-84
2022/03/11 02:49:55;;;;;;;18.52;9.85;;;3.30;99.90;;;;;;5033219;28;20037;-84
2022/03/11 02:52:21;;;;;;;16.75;9.38;;;3.20;99.90;;;;;;5033175;28;20095;-84
2022/03/11 02:54:48;;;;;;;16.17;9.60;;;3.10;99.90;;;;;;5034943;28;20061;-84
2022/03/11 02:57:15;;;;;;;17.42;8.73;;;3.20;99.90;;;;;;5034347;28;20025;-84
2022/03/11 02:59:45;;;;;;;21.50;10.82;;;3.10;99.90;;;;;;5033060;28;20029;-83
2022/03/11 03:02:10;;;;;;;18.48;9.70;;;3.10;99.90;;;;;;5034432;28;20026;-84
2022/03/11 03:04:36;;;;;;;19.88;9.95;;;3.10;99.90;;;;;;5034554;28;20431;-84
2022/03/11 03:07:02;;;;;;;16.27;10.35;;;3.10;99.90;;;;;;5032843;28;20437;-84
2022/03/11 03:09:28;;;;;;;17.45;10.32;;;3.20;99.90;;;;;;5034239;28;20513;-84
2022/03/11 03:12:44;;;;;;;16.17;9.60;;;3.00;99.90;;;;;;5032712;28;20049;-84
2022/03/11 03:15:09;;;;;;;16.35;10.48;;;3.00;99.90;;;;;;5034081;28;20025;-84
2022/03/11 03:17:36;;;;;;;14.80;8.52;;;3.10;99.90;;;;;;5033746;28;20125;-84
2022/03/11 03:20:03;;;;;;;18.95;9.27;;;3.10;99.90;;;;;;5033843;28;20033;-84
2022/03/11 03:22:29;;;;;;;15.05;9.02;;;3.00;99.90;;;;;;5033729;28;20039;-84
2022/03/11 03:24:55;;;;;;;17.58;9.32;;;3.00;99.90;;;;;;5033596;28;20104;-84
2022/03/11 03:27:20;;;;;;;17.60;9.82;;;3.00;99.90;;;;;;5033841;28;20029;-84
2022/03/11 03:29:46;;;;;;;17.77;10.50;;;2.80;99.90;;;;;;5033832;28;20032;-85
2022/03/11 03:32:11;;;;;;;13.95;7.82;;;2.90;1.00;;;;;;5034011;28;20071;-84
2022/03/11 03:34:38;;;;;;;16.70;8.90;;;2.70;1.00;;;;;;5033718;28;20033;-84
2022/03/11 03:37:09;;;;;;;17.02;9.50;;;2.70;1.00;;;;;;5032331;28;20029;-84
2022/03/11 03:39:39;;;;;;;17.98;9.30;;;2.90;1.00;;;;;;5033715;28;20428;-84
2022/03/11 03:42:05;;;;;;;16.35;8.75;;;2.80;1.00;;;;;;5033809;28;20022;-84
2022/03/11 03:44:32;;;;;;;16.30;9.38;;;2.90;1.00;;;;;;5033398;28;20473;-83
2022/03/11 03:46:57;;;;;;;18.75;10.00;;;3.00;1.00;;;;;;5033445;28;20370;-84
2022/03/11 03:49:23;;;;;;;17.35;9.50;;;2.90;1.00;;;;;;5033465;28;20036;-84
2022/03/11 03:51:49;;;;;;;17.23;8.98;;;2.90;1.00;;;;;;5033415;28;20036;-84
2022/03/11 03:54:17;;;;;;;18.02;9.45;;;2.70;1.00;;;;;;5033400;28;20026;-84
2022/03/11 03:56:43;;;;;;;18.85;10.38;;;2.70;1.00;;;;;;5032067;28;20026;-84
2022/03/11 03:59:10;;;;;;;18.67;9.88;;;2.60;1.00;;;;;;5032777;28;20021;-83
2022/03/11 04:02:29;;;;;;;15.43;8.48;;;2.60;1.00;;;;;;5033128;28;20076;-84
2022/03/11 04:04:55;;;;;;;15.80;9.30;;;2.70;1.00;;;;;;5033462;28;20021;-84
2022/03/11 04:07:21;;;;;;;16.38;9.00;;;2.80;1.00;;;;;;5032175;28;20026;-84
2022/03/11 04:09:47;;;;;;;14.52;8.38;;;2.60;1.00;;;;;;5031918;28;20034;-84
2022/03/11 04:12:12;;;;;;;16.40;9.07;;;2.70;1.00;;;;;;5033356;28;20024;-84
2022/03/11 04:14:38;;;;;;;17.15;9.50;;;2.60;1.00;;;;;;5033245;28;20026;-84
2022/03/11 04:17:03;;;;;;;19.08;10.00;;;2.70;1.00;;;;;;5031919;28;20116;-83
2022/03/11 04:19:29;;;;;;;15.77;9.13;;;2.60;1.00;;;;;;5031908;28;20121;-84
2022/03/11 04:21:54;;;;;;;16.15;9.18;;;2.50;1.00;;;;;;5042505;28;20076;-84
2022/03/11 04:24:23;;;;;;;18.88;9.77;;;2.50;1.00;;;;;;5052934;28;20029;-83
2022/03/11 04:26:48;;;;;;;17.10;9.82;;;2.60;1.00;;;;;;5053655;28;20052;-84
2022/03/11 04:29:14;;;;;;;14.80;8.68;;;2.50;1.00;;;;;;5053101;28;20052;-84
2022/03/11 04:31:40;;;;;;;17.42;9.35;;;2.40;1.00;;;;;;5053226;28;20049;-84
2022/03/11 04:34:06;;;;;;;16.48;9.77;;;2.60;1.00;;;;;;5053117;28;20017;-84
2022/03/11 04:36:38;;;;;;;16.98;9.27;;;2.50;1.00;;;;;;5053107;28;20025;-84
2022/03/11 04:39:05;;;;;;;16.00;9.55;;;2.40;1.00;;;;;;5052979;28;20029;-84
2022/03/11 04:41:32;;;;;;;19.65;9.43;;;2.40;1.00;;;;;;5053232;28;20025;-84
2022/03/11 04:43:58;;;;;;;18.15;10.13;;;2.30;1.00;;;;;;5053085;28;20029;-84
2022/03/11 04:46:24;;;;;;;17.25;10.18;;;2.40;1.00;;;;;;5052808;28;20021;-84
2022/03/11 04:48:49;;;;;;;16.17;9.75;;;2.30;1.00;;;;;;5051404;28;20025;-84
2022/03/11 04:51:15;;;;;;;16.45;9.88;;;2.50;1.00;;;;;;5051461;28;20099;-84
2022/03/11 04:53:41;;;;;;;19.30;10.52;;;2.30;1.00;;;;;;5052959;28;20051;-84
2022/03/11 04:56:07;;;;;;;16.65;9.77;;;2.30;1.00;;;;;;5052761;28;20048;-84
2022/03/11 04:58:32;;;;;;;16.00;8.40;;;2.20;1.00;;;;;;5052608;28;20492;-84
2022/03/11 05:00:58;;;;;;;19.80;9.63;;;2.20;1.00;;;;;;5051591;28;20033;-84
2022/03/11 05:03:23;;;;;;;20.98;10.35;;;2.20;1.00;;;;;;5051377;28;20472;-84
2022/03/11 05:05:49;;;;;;;18.40;10.65;;;2.20;1.00;;;;;;5052907;28;20022;-84
2022/03/11 05:08:14;;;;;;;17.15;8.90;;;2.20;1.00;;;;;;5051387;28;20021;-84
2022/03/11 05:10:40;;;;;;;16.88;9.32;;;2.30;1.00;;;;;;5054865;28;20025;-84
2022/03/11 05:13:06;;;;;;;20.42;10.73;;;2.30;1.00;;;;;;5056270;28;20020;-84
2022/03/11 05:15:31;;;;;;;21.15;10.02;;;2.40;1.00;;;;;;5056265;28;20024;-85
2022/03/11 05:17:57;;;;;;;18.73;10.43;;;2.20;1.00;;;;;;5055833;28;20053;-84
2022/03/11 05:20:23;;;;;;;21.13;10.48;;;2.40;1.00;;;;;;5055985;28;20040;-84
2022/03/11 05:22:50;;;;;;;17.60;10.23;;;2.20;1.00;;;;;;5055892;28;20481;-84
2022/03/11 05:25:16;;;;;;;16.02;9.32;;;2.40;1.00;;;;;;5054944;28;20017;-83
2022/03/11 05:27:41;;;;;;;19.77;9.98;;;2.40;1.00;;;;;;5054668;28;20538;-84
2022/03/11 05:30:09;;;;;;;20.70;10.35;;;2.40;1.00;;;;;;5055737;28;20025;-84
2022/03/11 05:32:46;;;;;;;21.38;11.40;;;2.30;1.00;;;;;;5055825;28;20104;-84
2022/03/11 05:35:14;;;;;;;16.70;9.55;;;2.50;1.00;;;;;;5055826;28;20362;-84
2022/03/11 05:37:39;;;;;;;21.38;10.63;;;2.40;1.00;;;;;;5056165;28;20104;-84
2022/03/11 05:40:06;;;;;;;17.73;9.18;;;2.30;1.00;;;;;;5056190;28;20109;-84
2022/03/11 05:42:31;;;;;;;17.35;10.13;;;2.30;1.00;;;;;;5056314;28;20033;-84
2022/03/11 05:44:57;;;;;;;20.75;10.95;;;2.30;1.00;;;;;;5056348;28;20024;-84
2022/03/11 05:47:22;;;;;;;19.00;10.80;;;2.20;1.00;;;;;;5056408;28;20086;-84
2022/03/11 05:49:48;;;;;;;17.65;9.68;;;2.10;1.00;;;;;;5056808;28;20036;-84
2022/03/11 05:52:14;;;;;;;22.52;11.48;;;2.10;1.00;;;;;;5040024;28;20026;-85
2022/03/11 05:54:39;;;;;;;18.90;10.75;;;2.10;1.00;;;;;;5042898;28;20068;-84
2022/03/11 05:57:05;;;;;;;18.95;9.95;;;2.20;1.00;;;;;;5037859;28;20044;-85
2022/03/11 05:59:32;;;;;;;19.92;10.40;;;2.20;1.00;;;;;;5037703;28;20108;-85
2022/03/11 06:01:58;;;;;;;23.67;9.88;;;2.20;1.00;;;;;;5037015;28;20021;-86
2022/03/11 06:04:23;;;;;;;23.77;12.35;;;2.20;1.00;;;;;;5036162;28;20040;-85
2022/03/11 06:06:49;;;;;;;23.52;11.88;;;2.20;1.00;;;;;;5036244;28;20404;-84
2022/03/11 06:09:15;;;;;;;26.25;10.73;;;2.20;1.00;;;;;;5035850;28;20029;-85
2022/03/11 06:11:40;;;;;;;21.42;10.50;;;2.30;1.00;;;;;;5034652;28;20487;-84
2022/03/11 06:14:07;;;;;;;18.40;9.82;;;2.30;1.00;;;;;;5035312;28;20029;-84
2022/03/11 06:16:33;;;;;;;19.45;10.57;;;2.20;1.00;;;;;;5035499;28;20025;-84
2022/03/11 06:18:59;;;;;;;20.05;9.75;;;2.20;1.00;;;;;;5033599;28;20627;-84
2022/03/11 06:21:24;;;;;;;17.30;8.65;;;2.30;1.00;;;;;;5033328;28;20766;-84
2022/03/11 06:23:50;;;;;;;22.73;12.07;;;2.20;1.00;;;;;;5015645;28;20022;-84
2022/03/11 06:26:16;;;;;;;17.85;10.10;;;2.50;1.00;;;;;;5030854;28;20017;-85
2022/03/11 06:28:41;;;;;;;23.77;10.85;;;2.40;1.00;;;;;;5014290;28;20030;-85
2022/03/11 06:31:11;;;;;;;17.88;9.63;;;2.40;1.00;;;;;;5033966;28;20500;-85
2022/03/11 06:33:38;;;;;;;22.13;11.70;;;2.50;1.00;;;;;;5031096;28;20504;-85
2022/03/11 06:36:04;;;;;;;20.08;10.90;;;2.40;1.00;;;;;;5015761;28;20513;-85
2022/03/11 06:38:30;;;;;;;20.42;11.13;;;2.60;1.00;;;;;;5015648;28;20048;-85
2022/03/11 06:40:56;;;;;;;21.02;10.27;;;2.60;1.00;;;;;;5015004;28;20113;-86
2022/03/11 06:43:22;;;;;;;20.48;10.38;;;2.70;1.00;;;;;;5030303;28;20044;-85
2022/03/11 06:45:48;;;;;;;20.38;10.88;;;2.80;1.00;;;;;;5030951;28;20029;-85
2022/03/11 06:48:13;;;;;;;25.95;11.90;;;2.80;1.00;;;;;;5028473;28;20689;-85
2022/03/11 06:50:39;;;;;;;21.75;10.77;;;2.80;1.00;;;;;;5015898;28;20024;-85
2022/03/11 06:53:05;;;;;;;20.92;10.82;;;2.70;1.00;;;;;;5015072;28;20089;-86
2022/03/11 06:55:30;;;;;;;22.40;11.63;;;2.80;1.00;;;;;;5015587;28;20492;-86
2022/03/11 06:57:56;;;;;;;19.95;11.30;;;3.00;1.00;;;;;;5015181;28;20053;-85
2022/03/11 07:00:21;;;;;;;27.10;11.63;;;3.00;1.00;;;;;;5015145;28;20037;-84
2022/03/11 07:02:47;;;;;;;25.65;12.48;;;3.10;1.00;;;;;;5027812;28;20433;-82
2022/03/11 07:05:13;;;;;;;23.67;11.57;;;3.20;1.00;;;;;;5029263;28;20030;-82
2022/03/11 07:07:39;;;;;;;18.95;10.18;;;3.20;1.00;;;;;;5017468;28;20018;-82
2022/03/11 07:10:09;;;;;;;21.08;11.20;;;3.30;1.00;;;;;;5023073;28;20030;-82
2022/03/11 07:12:35;;;;;;;;;;;3.40;1.00;;;;;;5014669;28;20104;-82
2022/03/11 07:15:02;;;;;;;19.77;10.80;;;3.60;1.00;;;;;;5012164;28;20048;-82
2022/03/11 07:17:28;;;;;;;21.75;12.25;;;3.70;1.00;;;;;;5015811;28;20414;-82
2022/03/11 07:19:54;;;;;;;19.80;10.02;;;5.70;99.90;;;;;;5024728;28;20488;-82
2022/03/11 07:22:20;;;;;;;18.02;9.10;;;8.50;99.90;;;;;;5034294;28;20044;-82
2022/03/11 07:24:45;;;;;;;18.42;9.27;;;9.90;99.90;;;;;;5033257;28;20097;-83
2022/03/11 07:27:12;;;;;;;19.60;11.02;;;9.30;99.90;;;;;;5033847;28;20548;-82
2022/03/11 07:29:38;;;;;;;24.48;11.02;;;8.90;99.90;;;;;;5033998;28;20061;-87
2022/03/11 07:32:04;;;;;;;18.73;11.13;;;10.20;99.90;;;;;;5031833;28;20061;-86
2022/03/11 07:34:30;;;;;;;20.58;11.70;;;10.60;99.90;;;;;;5033514;28;20385;-86
2022/03/11 07:36:56;;;;;;;22.95;12.20;;;10.80;99.90;;;;;;5028864;28;20505;-87
2022/03/11 07:39:21;;;;;;;21.00;10.60;;;11.00;99.90;;;;;;5024500;28;20549;-86
2022/03/11 07:41:49;;;;;;;17.67;10.30;;;11.30;99.90;;;;;;5013815;28;20113;-85
2022/03/11 07:44:14;;;;;;;23.13;11.80;;;10.90;99.90;;;;;;5014093;28;20025;-86
2022/03/11 07:46:41;;;;;;;19.90;11.02;;;11.60;99.90;;;;;;5012511;28;20478;-86
2022/03/11 07:49:06;;;;;;;17.33;9.80;;;11.90;99.90;;;;;;5013568;28;20030;-86
2022/03/11 07:51:32;;;;;;;18.63;10.05;;;11.50;99.90;;;;;;5032839;28;20025;-87
2022/03/11 07:53:58;;;;;;;19.00;11.57;;;13.10;99.90;;;;;;5032310;28;20480;-88
2022/03/11 07:56:24;;;;;;;18.15;10.63;;;12.90;99.90;;;;;;5032246;28;20029;-86
2022/03/11 07:58:49;;;;;;;17.45;10.20;;;13.40;99.90;;;;;;5033283;28;20033;-87
2022/03/11 08:02:08;;;;;;;18.55;11.65;;;12.50;99.90;;;;;;5032792;28;20026;-86
2022/03/11 08:04:34;;;;;;;19.45;11.18;;;12.40;99.90;;;;;;5039716;28;20087;-87
2022/03/11 08:07:05;;;;;;;16.88;9.90;;;11.60;99.90;;;;;;5011638;28;20022;-87
2022/03/11 08:09:30;;;;;;;20.73;11.63;;;11.90;99.90;;;;;;5011847;28;20101;-87
2022/03/11 08:11:56;;;;;;;16.65;10.57;;;13.80;99.90;;;;;;5018136;28;20105;-87
2022/03/11 08:14:21;;;;;;;18.90;12.48;;;12.80;99.90;;;;;;5019549;28;20097;-84
2022/03/11 08:16:47;;;;;;;16.15;11.02;;;14.40;99.90;;;;;;5018917;28;20026;-84
2022/03/11 08:19:12;;;;;;;17.67;8.93;;;14.40;99.90;;;;;;5016634;28;20409;-84
2022/03/11 08:21:38;;;;;;;18.77;10.95;;;14.20;99.90;;;;;;5014238;28;20093;-83
2022/03/11 08:24:04;;;;;;;17.23;11.10;;;14.20;99.90;;;;;;5013766;28;20080;-84
2022/03/11 08:26:30;;;;;;;19.77;12.57;;;14.30;99.90;;;;;;5020976;28;20022;-85
2022/03/11 08:28:55;;;;;;;17.77;10.75;;;13.30;99.90;;;;;;5020116;28;20112;-85
2022/03/11 08:31:21;;;;;;;19.85;13.38;;;16.00;99.90;;;;;;5035091;28;20021;-84
2022/03/11 08:33:47;;;;;;;16.98;9.35;;;14.60;99.90;;;;;;5034501;28;20029;-84
2022/03/11 08:36:12;;;;;;;19.65;12.77;;;15.60;99.90;;;;;;5036282;28;20021;-83
2022/03/11 08:38:39;;;;;;;17.38;10.65;;;15.90;99.90;;;;;;5030970;28;20037;-85
2022/03/11 08:41:07;;;;;;;20.02;12.45;;;17.10;99.90;;;;;;5037892;28;20492;-84
2022/03/11 08:43:33;;;;;;;20.38;12.00;;;14.40;99.90;;;;;;5031890;28;20444;-85
2022/03/11 08:45:59;;;;;;;18.73;11.63;;;15.70;99.90;;;;;;5025406;28;20048;-84
2022/03/11 08:48:24;;;;;;;17.33;10.82;;;16.70;99.90;;;;;;5027787;28;20014;-85
2022/03/11 08:50:50;;;;;;;16.45;11.23;;;18.80;99.90;;;;;;5030392;28;20484;-85
2022/03/11 08:53:18;;;;;;;18.77;11.68;;;18.90;99.90;;;;;;5040433;28;20105;-87
2022/03/11 08:55:43;;;;;;;17.85;9.82;;;17.30;99.90;;;;;;5037189;28;20125;-86
2022/03/11 08:58:09;;;;;;;17.73;10.52;;;19.20;99.90;;;;;;5030780;28;20485;-85
2022/03/11 09:00:35;;;;;;;19.92;10.45;;;18.90;99.90;;;;;;5027615;28;20109;-86
2022/03/11 09:03:00;;;;;;;20.75;11.75;;;17.50;99.90;;;;;;5037226;28;20191;-86
2022/03/11 09:05:26;;;;;;;20.73;11.95;;;18.10;99.90;;;;;;5036300;28;20021;-85
2022/03/11 09:07:52;;;;;;;22.05;12.75;;;16.20;99.90;;;;;;5035044;28;20041;-85
2022/03/11 09:10:18;;;;;;;20.42;12.30;;;16.80;99.90;;;;;;5024479;28;20112;-86
2022/03/11 09:12:44;;;;;;;16.58;10.55;;;16.90;99.90;;;;;;5035038;28;20363;-84
2022/03/11 09:15:10;;;;;;;17.90;11.48;;;17.60;99.90;;;;;;5036072;28;20033;-86
2022/03/11 09:17:37;;;;;;;19.27;11.70;;;19.90;99.90;;;;;;5028694;28;20037;-86
2022/03/11 09:20:03;;;;;;;17.35;12.02;;;20.10;99.90;;;;;;5019556;28;20127;-86
2022/03/11 09:22:30;;;;;;;17.85;10.25;;;18.80;99.90;;;;;;5035443;28;20175;-86
2022/03/11 09:24:57;;;;;;;19.27;11.50;;;19.40;99.90;;;;;;5030186;28;20026;-86
2022/03/11 09:27:23;;;;;;;16.58;11.98;;;20.50;99.90;;;;;;5027111;28;20508;-86
2022/03/11 09:29:50;;;;;;;21.67;12.25;;;19.80;99.90;;;;;;5028313;28;20057;-85
2022/03/11 09:32:15;;;;;;;15.43;10.55;;;19.70;99.90;;;;;;5022301;28;20473;-83
2022/03/11 09:34:41;;;;;;;18.35;10.52;;;20.40;99.90;;;;;;5023855;28;20025;-85
2022/03/11 09:37:07;;;;;;;17.83;11.32;;;19.70;99.90;;;;;;5032402;28;20397;-85
2022/03/11 09:39:33;;;;;;;20.85;11.30;;;18.30;99.90;;;;;;5031933;28;20053;-85
2022/03/11 09:41:58;;;;;;;20.67;11.38;;;18.50;99.90;;;;;;5029687;28;20067;-85
2022/03/11 09:44:24;;;;;;;16.95;10.23;;;18.70;99.90;;;;;;5026214;28;20026;-85
2022/03/11 09:46:50;;;;;;;17.08;11.70;;;17.80;99.90;;;;;;5029699;28;20021;-84
2022/03/11 09:49:17;;;;;;;17.15;11.02;;;19.00;99.90;;;;;;5026228;28;20527;-84
2022/03/11 09:51:45;;;;;;;20.52;12.23;;;19.40;99.90;;;;;;5028451;28;20018;-85
2022/03/11 09:54:11;;;;;;;19.52;12.73;;;21.40;99.90;;;;;;5023864;28;20018;-85
2022/03/11 09:56:39;;;;;;;20.05;11.57;;;17.90;99.90;;;;;;5026939;28;20050;-83
2022/03/11 09:59:05;;;;;;;19.30;10.52;;;19.60;99.90;;;;;;5029668;28;20042;-85
2022/03/11 10:01:32;;;;;;;18.92;12.20;;;18.10;99.90;;;;;;5026625;28;20360;-83
2022/03/11 10:03:58;;;;;;;19.65;13.50;;;19.70;99.90;;;;;;5026100;28;20040;-84
2022/03/11 10:06:38;;;;;;;17.98;12.70;;;20.00;99.90;;;;;;5027232;28;20068;-84
2022/03/11 10:09:04;;;;;;;21.40;12.82;;;19.40;99.90;;;;;;5018959;28;20587;-83
2022/03/11 10:11:29;;;;;;;20.75;11.70;;;19.20;99.90;;;;;;5044629;28;20029;-82
2022/03/11 10:14:05;;;;;;;17.40;11.52;;;19.30;99.90;;;;;;5031535;28;20033;-82
2022/03/11 10:16:32;;;;;;;17.58;11.65;;;18.60;99.90;;;;;;5033414;28;20124;-86
2022/03/11 10:18:58;;;;;;;18.67;11.93;;;18.20;99.90;;;;;;5037749;28;20340;-86
2022/03/11 10:21:40;;;;;;;17.67;10.15;;;17.80;99.90;;;;;;5034047;28;20097;-86
2022/03/11 10:24:13;;;;;;;21.17;12.13;;;20.20;99.90;;;;;;5025067;28;20037;-86
2022/03/11 10:26:46;;;;;;;19.08;10.85;;;19.10;99.90;;;;;;5030145;28;20029;-86
2022/03/11 10:29:13;;;;;;;20.17;12.48;;;19.70;99.90;;;;;;5028388;28;20412;-85
2022/03/11 10:31:42;;;;;;;21.23;12.48;;;22.40;99.90;;;;;;5035801;28;20021;-86
2022/03/11 10:34:14;;;;;;;19.48;13.07;;;21.10;99.90;;;;;;5024889;28;20017;-88
2022/03/11 10:36:51;;;;;;;21.30;11.50;;;16.70;99.90;;;;;;5038047;28;20057;-88
2022/03/11 10:39:30;;;;;;;21.58;12.50;;;18.40;99.90;;;;;;5034764;28;20463;-90
2022/03/11 10:42:13;;;;;;;22.05;13.13;;;16.40;99.90;;;;;;5035142;28;20029;-90
2022/03/11 10:44:40;;;;;;;21.63;13.05;;;14.60;99.90;;;;;;5015113;28;20437;-89
2022/03/11 10:47:20;;;;;;;19.27;12.60;;;13.70;99.90;;;;;;5013872;28;20034;-88
2022/03/11 10:49:51;;;;;;;21.10;13.68;;;12.80;99.90;;;;;;5015096;28;20458;-83
2022/03/11 10:52:42;;;;;;;19.80;12.95;;;12.10;99.90;;;;;;5013460;28;20030;-84
2022/03/11 10:55:21;;;;;;;21.42;11.52;;;11.70;99.90;;;;;;5019212;28;20029;-84
2022/03/11 10:57:47;;;;;;;20.27;11.48;;;11.80;99.90;;;;;;5025806;28;20018;-83
2022/03/11 11:00:27;;;;;;;21.75;13.48;;;12.00;99.90;;;;;;5025069;28;20029;-83
2022/03/11 11:02:58;;;;;;;21.67;13.98;;;11.50;99.90;;;;;;5018846;28;20482;-83
2022/03/11 11:05:25;;;;;;;23.10;13.48;;;11.80;99.90;;;;;;5035994;28;20063;-83
2022/03/11 11:07:51;;;;;;;21.52;12.02;;;11.80;99.90;;;;;;5018557;28;20116;-84
2022/03/11 11:10:19;;;;;;;22.38;13.45;;;12.10;99.90;;;;;;5013902;28;20023;-83
2022/03/11 11:12:46;;;;;;;22.98;12.73;;;12.20;99.90;;;;;;5018739;28;20017;-84
2022/03/11 11:15:13;;;;;;;20.13;12.60;;;12.00;99.90;;;;;;5019871;28;20060;-83
2022/03/11 11:17:42;;;;;;;19.60;13.13;;;11.80;99.90;;;;;;5015584;28;20046;-83
2022/03/11 11:20:16;;;;;;;20.38;12.93;;;12.00;99.90;;;;;;5026077;28;20040;-83
2022/03/11 11:22:43;;;;;;;18.70;12.40;;;12.10;99.90;;;;;;5028712;28;20021;-84
2022/03/11 11:25:10;;;;;;;22.77;14.20;;;11.80;99.90;;;;;;5013623;28;20048;-84
2022/03/11 11:27:37;;;;;;;20.30;12.35;;;12.00;99.90;;;;;;5014038;28;20049;-84
2022/03/11 11:30:04;;;;;;;23.67;13.73;;;12.40;99.90;;;;;;5033727;28;20032;-84
2022/03/11 11:32:32;;;;;;;23.38;13.75;;;12.00;99.90;;;;;;5022527;28;20465;-85
2022/03/11 11:35:28;;;;;;;21.88;13.07;;;11.90;99.90;;;;;;5026799;28;20528;-86
2022/03/11 11:37:55;;;;;;;20.55;12.23;;;12.60;99.90;;;;;;5013953;28;20040;-86
2022/03/11 11:40:33;;;;;;;22.77;13.43;;;12.50;99.90;;;;;;5011492;28;20061;-85
2022/03/11 11:43:26;;;;;;;24.48;13.25;;;12.20;99.90;;;;;;4999873;28;20089;-85
2022/03/11 11:46:04;;;;;;;20.88;12.98;;;12.70;99.90;;;;;;5017158;28;20041;-85
2022/03/11 11:48:33;;;;;;;20.88;13.05;;;13.20;99.90;;;;;;5018094;28;20030;-86
2022/03/11 11:51:04;;;;;;;28.35;14.13;;;12.30;99.90;;;;;;5015440;28;20619;-85
2022/03/11 11:53:43;;;;;;;22.23;13.85;;;12.70;99.90;;;;;;5022746;28;20377;-87
2022/03/11 11:56:27;;;;;;;24.00;14.23;;;12.50;99.90;;;;;;5014263;28;20032;-86
2022/03/11 11:58:56;;;;;;;20.95;12.38;;;12.50;99.90;;;;;;5012318;28;20401;-85
2022/03/11 12:01:46;;;;;;;19.85;12.52;;;12.90;99.90;;;;;;5013956;28;20026;-85
2022/03/11 12:04:38;;;;;;;21.05;13.00;;;12.50;99.90;;;;;;5025579;28;20035;-85
2022/03/11 12:07:04;;;;;;;19.02;11.40;;;13.30;99.90;;;;;;5032872;28;20021;-86
2022/03/11 12:09:42;;;;;;;20.38;12.95;;;13.20;99.90;;;;;;5033280;28;20022;-84
2022/03/11 12:12:27;;;;;;;20.60;12.07;;;13.10;99.90;;;;;;5033375;28;20017;-85
2022/03/11 12:15:04;;;;;;;18.02;11.70;;;13.20;99.90;;;;;;5029965;28;20034;-85
2022/03/11 12:17:55;;;;;;;21.08;11.95;;;13.30;99.90;;;;;;5033002;28;20025;-85
2022/03/11 12:20:32;;;;;;;21.75;13.73;;;13.20;99.90;;;;;;5036970;28;20033;-87
2022/03/11 12:23:08;;;;;;;19.95;12.57;;;13.00;99.90;;;;;;5037597;28;20057;-85
2022/03/11 12:25:44;;;;;;;23.02;13.90;;;13.10;99.90;;;;;;5034684;28;20028;-85
2022/03/11 12:28:35;;;;;;;21.13;12.50;;;12.60;99.90;;;;;;5026238;28;20022;-84
2022/03/11 12:31:09;;;;;;;23.20;12.77;;;12.60;99.90;;;;;;5025989;28;20318;-85
2022/03/11 12:33:55;;;;;;;23.20;12.77;;;13.40;99.90;;;;;;5023464;28;20021;-85
2022/03/11 12:36:23;;;;;;;23.02;12.98;;;13.00;99.90;;;;;;5030620;28;20505;-84
2022/03/11 12:38:50;;;;;;;19.58;13.70;;;13.00;99.90;;;;;;5025953;28;20072;-85
2022/03/11 12:41:27;;;;;;;19.58;12.27;;;12.80;99.90;;;;;;5029661;28;20025;-84
2022/03/11 12:43:57;;;;;;;22.50;13.35;;;13.20;99.90;;;;;;5015882;28;20485;-84
2022/03/11 12:46:22;;;;;;;24.70;14.33;;;13.20;99.90;;;;;;5027149;28;20021;-85
2022/03/11 12:48:48;;;;;;;23.60;13.60;;;13.00;99.90;;;;;;5017877;28;20029;-84
2022/03/11 12:51:19;;;;;;;23.52;13.90;;;12.80;99.90;;;;;;5016924;28;20030;-84
2022/03/11 12:53:50;;;;;;;22.08;14.00;;;13.10;99.90;;;;;;5024003;28;20474;-83
2022/03/11 12:56:17;;;;;;;22.50;12.15;;;12.80;99.90;;;;;;5014541;28;20026;-84
2022/03/11 12:58:43;;;;;;;19.40;13.00;;;13.00;99.90;;;;;;5029472;28;20501;-84